KGPM

Grand Prairie Municipal Airport

Grand Prairie, Texas, USA
METAR KGPM 181255Z AUTO 00000KT 10SM CLR 04/04 A3013 RMK AO2 T00350035
Observed Flight Rules
Dec-18 @ 12:55 UTC (13 minutes ago) Visual Flight Rules
Visibility Clouds
10 miles
  • Clear skies
Temperatures Readings
Current 4°C / 39°F
Dewpoint 4°C / 39°F
Humidity 100%
Altimeter 30.13" Hg
Pressure 1020 hPa
Elevation 180
METAR KGPM 181255Z AUTO 00000KT 10SM CLR 04/04 A3013 RMK AO2 T00350035
Observed Flight Rules
Dec-18 @ 12:55 UTC
(13 minutes ago)
VFR
Clouds
  • Clear skies
Temperature Dewpoint
4°C / 39°F 4°C / 39°F
Humidity Altimeter Pressure
100% 30.13" Hg 1020 hPa